Time;durP1;ratioP1;P1;durP2;ratioP2;P2;SDS_P1;SDS_P2;PMS_P1;PMS_P2;Temp;Humidity;BMP_temperature;BMP_pressure;BME280_temperature;BME280_humidity;BME280_pressure;Samples;Min_cycle;Max_cycle;Signal;HPM_P1;HPM_P2
2022/03/08 00:01:13;;;;;;;1.25;0.77;;;22.10;99.90;;;;;;5013252;28;20029;-70
2022/03/08 00:03:40;;;;;;;1.50;0.65;;;22.20;99.90;;;;;;5013345;28;20029;-69
2022/03/08 00:06:07;;;;;;;1.00;0.60;;;22.20;99.90;;;;;;5015059;28;20420;-71
2022/03/08 00:08:34;;;;;;;1.70;1.33;;;22.30;99.90;;;;;;5014626;28;20069;-69
2022/03/08 00:11:03;;;;;;;1.60;0.95;;;22.30;99.90;;;;;;5017207;28;20026;-69
2022/03/08 00:13:30;;;;;;;2.92;1.27;;;22.40;99.90;;;;;;5015851;28;20025;-69
2022/03/08 00:15:57;;;;;;;2.40;0.90;;;22.40;99.90;;;;;;5012793;28;20392;-67
2022/03/08 00:18:24;;;;;;;1.77;0.65;;;22.50;99.90;;;;;;5015404;28;20435;-66
2022/03/08 00:20:51;;;;;;;1.25;0.85;;;22.40;99.90;;;;;;5017431;28;20463;-67
2022/03/08 00:23:18;;;;;;;3.95;1.52;;;22.50;99.90;;;;;;5018262;28;20017;-70
2022/03/08 00:25:45;;;;;;;1.38;0.95;;;22.50;99.90;;;;;;5015122;28;20460;-70
2022/03/08 00:28:12;;;;;;;2.80;1.45;;;22.50;99.90;;;;;;5008836;28;20148;-67
2022/03/08 00:30:39;;;;;;;2.05;1.25;;;22.60;99.90;;;;;;5016149;28;20460;-69
2022/03/08 00:33:06;;;;;;;2.63;0.80;;;22.60;99.90;;;;;;5021456;28;20021;-67
2022/03/08 00:35:33;;;;;;;2.03;1.00;;;22.60;99.90;;;;;;5016520;28;20017;-68
2022/03/08 00:38:00;;;;;;;2.95;1.20;;;22.60;99.90;;;;;;5012057;28;20072;-67
2022/03/08 00:40:27;;;;;;;2.40;1.10;;;22.70;99.90;;;;;;5012805;28;20559;-70
2022/03/08 00:42:54;;;;;;;2.60;1.05;;;22.70;99.90;;;;;;5015420;28;20547;-68
2022/03/08 00:45:21;;;;;;;1.70;0.90;;;22.70;99.90;;;;;;5019342;28;20025;-72
2022/03/08 00:47:49;;;;;;;1.75;1.08;;;22.70;99.90;;;;;;5016710;28;20111;-70
2022/03/08 00:50:22;;;;;;;2.65;1.23;;;22.80;99.90;;;;;;5013885;28;20034;-67
2022/03/08 00:52:50;;;;;;;3.40;1.15;;;22.80;99.90;;;;;;5015260;28;20037;-71
2022/03/08 00:55:18;;;;;;;2.38;1.10;;;22.80;99.90;;;;;;5014450;28;20021;-70
2022/03/08 00:57:47;;;;;;;1.38;0.98;;;22.90;99.90;;;;;;5015076;28;20026;-71
2022/03/08 01:00:16;;;;;;;5.18;2.97;;;22.90;99.90;;;;;;5018760;28;20472;-71
2022/03/08 01:02:43;;;;;;;1.30;1.08;;;22.80;99.90;;;;;;5014419;28;20032;-68
2022/03/08 01:05:11;;;;;;;3.53;2.28;;;22.90;99.90;;;;;;5015227;28;20560;-68
2022/03/08 01:07:38;;;;;;;4.82;1.58;;;22.90;99.90;;;;;;5016318;28;20575;-69
2022/03/08 01:10:09;;;;;;;1.48;1.10;;;22.90;99.90;;;;;;5016416;28;20092;-68
2022/03/08 01:12:36;;;;;;;2.75;1.42;;;22.90;99.90;;;;;;5013615;28;20454;-68
2022/03/08 01:15:05;;;;;;;1.80;1.00;;;22.90;99.90;;;;;;5014048;28;20029;-67
2022/03/08 01:17:32;;;;;;;6.43;1.38;;;23.00;99.90;;;;;;5012996;28;20455;-70
2022/03/08 01:19:59;;;;;;;1.73;0.98;;;23.00;99.90;;;;;;5022204;28;20392;-69
2022/03/08 01:22:26;;;;;;;3.15;1.25;;;23.00;99.90;;;;;;5014511;28;20196;-70
2022/03/08 01:24:53;;;;;;;3.30;0.93;;;23.00;99.90;;;;;;5025316;28;20025;-70
2022/03/08 01:27:20;;;;;;;1.60;1.20;;;23.00;99.90;;;;;;5007798;28;20117;-72
2022/03/08 01:29:47;;;;;;;2.40;1.05;;;22.90;99.90;;;;;;5020895;28;20544;-72
2022/03/08 01:32:14;;;;;;;4.05;1.30;;;22.90;99.90;;;;;;5015275;28;20036;-74
2022/03/08 01:34:41;;;;;;;2.00;1.08;;;22.90;99.90;;;;;;5010769;28;20029;-71
2022/03/08 01:37:10;;;;;;;3.90;1.20;;;22.80;99.90;;;;;;5011999;28;20050;-72
2022/03/08 01:39:36;;;;;;;2.63;1.35;;;22.90;99.90;;;;;;5024008;28;20297;-72
2022/03/08 01:42:17;;;;;;;2.05;0.98;;;22.80;99.90;;;;;;5010742;28;20025;-72
2022/03/08 01:44:46;;;;;;;2.58;1.15;;;22.80;99.90;;;;;;5012385;28;20044;-71
2022/03/08 01:47:18;;;;;;;4.45;2.40;;;22.80;99.90;;;;;;5013553;28;20049;-73
2022/03/08 01:49:46;;;;;;;8.50;5.40;;;22.80;99.90;;;;;;5012371;28;20473;-71
2022/03/08 01:52:14;;;;;;;2.33;1.00;;;22.80;99.90;;;;;;5007842;28;20832;-70
2022/03/08 01:54:44;;;;;;;2.80;1.52;;;22.80;99.90;;;;;;5016411;28;20022;-72
2022/03/08 01:57:13;;;;;;;3.15;1.42;;;22.80;99.90;;;;;;5013090;28;20506;-71
2022/03/08 01:59:41;;;;;;;2.75;1.27;;;22.80;99.90;;;;;;5014853;28;20330;-70
2022/03/08 02:02:09;;;;;;;2.35;1.20;;;22.80;99.90;;;;;;5010746;28;20025;-71
2022/03/08 02:04:36;;;;;;;2.08;1.00;;;22.80;99.90;;;;;;5015120;28;20030;-71
2022/03/08 02:07:04;;;;;;;2.40;1.27;;;22.80;99.90;;;;;;5008820;28;20515;-71
2022/03/08 02:09:31;;;;;;;2.08;1.10;;;22.70;99.90;;;;;;5014363;28;20038;-70
2022/03/08 02:11:58;;;;;;;2.05;1.40;;;22.70;99.90;;;;;;5013551;28;20029;-71
2022/03/08 02:14:27;;;;;;;1.67;1.20;;;22.70;99.90;;;;;;5011642;28;20030;-72
2022/03/08 02:16:54;;;;;;;2.83;1.15;;;22.70;99.90;;;;;;5013473;28;20022;-69
2022/03/08 02:19:21;;;;;;;2.08;0.88;;;22.70;99.90;;;;;;5020382;28;20380;-69
2022/03/08 02:21:50;;;;;;;2.40;0.65;;;22.70;99.90;;;;;;5016975;28;20170;-70
2022/03/08 02:24:18;;;;;;;0.52;0.50;;;22.70;99.90;;;;;;5012017;28;20040;-68
2022/03/08 02:26:46;;;;;;;0.73;0.52;;;22.70;99.90;;;;;;5012770;28;20295;-71
2022/03/08 02:29:13;;;;;;;1.70;0.75;;;22.60;99.90;;;;;;5014788;28;20030;-71
2022/03/08 02:31:40;;;;;;;0.65;0.50;;;22.60;99.90;;;;;;5017920;28;20025;-70
2022/03/08 02:34:08;;;;;;;0.85;0.60;;;22.60;99.90;;;;;;5013355;28;20021;-69
2022/03/08 02:36:35;;;;;;;1.20;0.68;;;22.60;99.90;;;;;;5014160;28;20052;-72
2022/03/08 02:39:03;;;;;;;0.88;0.47;;;22.50;99.90;;;;;;5014289;28;20048;-67
2022/03/08 02:41:30;;;;;;;1.60;0.40;;;22.50;99.90;;;;;;5018405;28;20021;-71
2022/03/08 02:43:57;;;;;;;1.35;0.60;;;22.50;99.90;;;;;;5015719;28;20033;-70
2022/03/08 02:46:24;;;;;;;1.20;0.63;;;22.50;99.90;;;;;;5008151;28;20107;-72
2022/03/08 02:48:51;;;;;;;1.50;0.82;;;22.40;99.90;;;;;;5016979;28;20733;-69
2022/03/08 02:51:20;;;;;;;1.20;0.55;;;22.40;99.90;;;;;;5021956;28;20041;-72
2022/03/08 02:53:47;;;;;;;1.30;0.68;;;22.40;99.90;;;;;;5019001;28;20021;-72
2022/03/08 02:56:14;;;;;;;1.77;1.00;;;22.30;99.90;;;;;;5013649;28;20029;-74
2022/03/08 02:58:41;;;;;;;1.10;0.70;;;22.30;99.90;;;;;;5014564;28;20026;-73
2022/03/08 03:01:08;;;;;;;2.72;1.50;;;22.20;99.90;;;;;;5018659;28;20438;-71
2022/03/08 03:03:35;;;;;;;3.65;1.38;;;22.20;99.90;;;;;;5014510;28;20033;-72
2022/03/08 03:06:02;;;;;;;3.60;1.27;;;22.30;99.90;;;;;;5008874;28;20026;-71
2022/03/08 03:08:29;;;;;;;1.88;1.00;;;22.20;99.90;;;;;;5019331;28;20100;-71
2022/03/08 03:10:56;;;;;;;1.67;0.80;;;22.20;99.90;;;;;;5023650;28;20025;-71
2022/03/08 03:13:23;;;;;;;0.85;0.52;;;22.30;99.90;;;;;;5014478;28;20507;-70
2022/03/08 03:15:50;;;;;;;1.75;1.00;;;22.20;99.90;;;;;;5012859;28;20108;-74
2022/03/08 03:18:17;;;;;;;1.70;0.70;;;22.20;99.90;;;;;;5011157;28;20442;-73
2022/03/08 03:20:44;;;;;;;1.20;0.68;;;22.20;99.90;;;;;;5015361;28;20069;-73
2022/03/08 03:23:11;;;;;;;1.48;0.63;;;22.00;99.90;;;;;;5016753;28;20101;-69
2022/03/08 03:25:38;;;;;;;1.33;0.80;;;22.00;99.90;;;;;;5011731;28;20045;-72
2022/03/08 03:28:05;;;;;;;4.18;2.17;;;21.90;99.90;;;;;;5007662;28;20026;-72
2022/03/08 03:30:32;;;;;;;2.22;0.93;;;21.90;99.90;;;;;;5011544;28;20037;-71
2022/03/08 03:33:01;;;;;;;3.72;1.00;;;21.80;99.90;;;;;;5013040;28;20037;-72
2022/03/08 03:35:28;;;;;;;1.95;1.10;;;21.80;99.90;;;;;;5010966;28;20022;-71
2022/03/08 03:37:54;;;;;;;2.50;1.45;;;21.80;99.90;;;;;;5018306;28;20328;-71
2022/03/08 03:40:22;;;;;;;1.75;1.05;;;21.90;99.90;;;;;;5013003;28;20475;-70
2022/03/08 03:42:49;;;;;;;2.58;0.68;;;21.90;99.90;;;;;;5014118;28;20214;-70
2022/03/08 03:45:16;;;;;;;1.48;0.68;;;21.90;99.90;;;;;;5010546;28;20127;-72
2022/03/08 03:47:42;;;;;;;1.80;0.57;;;21.90;99.90;;;;;;5015494;28;20372;-71
2022/03/08 03:50:10;;;;;;;2.67;0.98;;;21.90;99.90;;;;;;5013171;28;20118;-71
2022/03/08 03:52:38;;;;;;;1.55;0.80;;;22.00;99.90;;;;;;5025741;28;20036;-71
2022/03/08 03:55:05;;;;;;;1.83;0.60;;;21.90;99.90;;;;;;5017419;28;20195;-70
2022/03/08 03:57:32;;;;;;;2.10;0.80;;;22.00;99.90;;;;;;5007262;28;20028;-71
2022/03/08 03:59:59;;;;;;;4.43;0.80;;;22.00;99.90;;;;;;5017401;28;20017;-72
2022/03/08 04:02:26;;;;;;;1.17;0.40;;;22.00;99.90;;;;;;5013383;28;20025;-70
2022/03/08 04:04:53;;;;;;;3.22;0.50;;;22.00;99.90;;;;;;5014908;28;20892;-71
2022/03/08 04:07:20;;;;;;;2.05;0.50;;;22.00;99.90;;;;;;5010569;28;20543;-71
2022/03/08 04:09:47;;;;;;;2.20;0.60;;;22.00;99.90;;;;;;5010523;28;20053;-71
2022/03/08 04:12:14;;;;;;;4.13;2.13;;;22.00;99.90;;;;;;5018575;28;20479;-69
2022/03/08 04:14:41;;;;;;;7.55;2.35;;;21.90;99.90;;;;;;5015791;28;20029;-68
2022/03/08 04:17:08;;;;;;;1.15;0.55;;;21.90;99.90;;;;;;5021874;28;20025;-72
2022/03/08 04:19:35;;;;;;;3.22;1.15;;;21.80;99.90;;;;;;5015268;28;20029;-71
2022/03/08 04:22:02;;;;;;;1.85;0.93;;;21.80;99.90;;;;;;5008080;28;20022;-71
2022/03/08 04:24:29;;;;;;;2.50;1.85;;;21.70;99.90;;;;;;5016826;28;20121;-69
2022/03/08 04:26:56;;;;;;;0.63;0.50;;;21.60;99.90;;;;;;5016205;28;20069;-69
2022/03/08 04:29:23;;;;;;;1.77;0.52;;;21.60;99.90;;;;;;5015908;28;20520;-69
2022/03/08 04:31:50;;;;;;;1.98;0.68;;;21.50;99.90;;;;;;5011905;28;20119;-71
2022/03/08 04:34:17;;;;;;;1.60;0.60;;;21.50;99.90;;;;;;5011052;28;20037;-73
2022/03/08 04:36:43;;;;;;;2.25;0.60;;;21.40;99.90;;;;;;5018373;28;20042;-72
2022/03/08 04:39:10;;;;;;;1.60;0.70;;;21.40;99.90;;;;;;5013267;28;20414;-73
2022/03/08 04:41:39;;;;;;;2.47;0.80;;;21.40;99.90;;;;;;5019312;28;20040;-71
2022/03/08 04:44:06;;;;;;;1.45;0.73;;;21.40;99.90;;;;;;5021617;28;20055;-74
2022/03/08 04:46:33;;;;;;;1.10;0.73;;;21.40;99.90;;;;;;5018745;28;20033;-72
2022/03/08 04:49:00;;;;;;;2.05;0.70;;;21.40;99.90;;;;;;5018827;28;20037;-71
2022/03/08 04:51:27;;;;;;;1.88;0.88;;;21.40;99.90;;;;;;5020712;28;20498;-71
2022/03/08 04:53:54;;;;;;;2.83;0.90;;;21.40;99.90;;;;;;5021002;28;20033;-73
2022/03/08 04:56:21;;;;;;;1.67;0.95;;;21.40;99.90;;;;;;5018846;28;20030;-71
2022/03/08 04:58:48;;;;;;;1.38;0.88;;;21.40;99.90;;;;;;5020444;28;20052;-69
2022/03/08 05:01:15;;;;;;;1.23;1.00;;;21.40;99.90;;;;;;5020561;28;20025;-70
2022/03/08 05:03:43;;;;;;;1.90;1.27;;;21.40;99.90;;;;;;5020693;28;20055;-71
2022/03/08 05:06:10;;;;;;;4.13;1.38;;;21.40;99.90;;;;;;5020266;28;20045;-69
2022/03/08 05:08:37;;;;;;;1.67;1.00;;;21.40;99.90;;;;;;5020640;28;20496;-70
2022/03/08 05:11:04;;;;;;;1.52;0.57;;;21.30;99.90;;;;;;5020544;28;20029;-71
2022/03/08 05:13:31;;;;;;;2.33;0.77;;;21.30;99.90;;;;;;5019802;28;20042;-70
2022/03/08 05:15:58;;;;;;;1.80;1.20;;;21.20;99.90;;;;;;5020518;28;20025;-72
2022/03/08 05:18:25;;;;;;;1.77;0.82;;;21.20;99.90;;;;;;5021019;28;20025;-72
2022/03/08 05:20:52;;;;;;;1.48;0.93;;;21.20;99.90;;;;;;5018523;28;20320;-69
2022/03/08 05:23:19;;;;;;;2.50;0.73;;;21.20;99.90;;;;;;5018669;28;20025;-69
2022/03/08 05:25:46;;;;;;;3.00;0.88;;;21.30;99.90;;;;;;5021871;28;20029;-70
2022/03/08 05:28:13;;;;;;;1.17;0.55;;;21.20;99.90;;;;;;5020377;28;20148;-69
2022/03/08 05:30:41;;;;;;;2.35;0.50;;;21.10;99.90;;;;;;5020582;28;20176;-70
2022/03/08 05:33:08;;;;;;;0.85;0.40;;;21.00;99.90;;;;;;5019414;28;20026;-69
2022/03/08 05:35:35;;;;;;;1.58;0.50;;;20.80;99.90;;;;;;5018907;28;20080;-70
2022/03/08 05:38:02;;;;;;;4.72;0.80;;;20.60;99.90;;;;;;5019431;28;20107;-69
2022/03/08 05:40:30;;;;;;;2.05;0.55;;;20.50;99.90;;;;;;5020428;28;20484;-70
2022/03/08 05:43:00;;;;;;;5.60;3.88;;;20.50;99.90;;;;;;5019051;28;20520;-70
2022/03/08 05:45:28;;;;;;;1.45;0.52;;;20.40;99.90;;;;;;5018238;28;20136;-68
2022/03/08 05:47:55;;;;;;;2.22;0.38;;;20.40;99.90;;;;;;5019754;28;20026;-69
2022/03/08 05:50:22;;;;;;;2.63;0.50;;;20.30;99.90;;;;;;5019349;28;20032;-71
2022/03/08 05:52:49;;;;;;;1.13;0.40;;;20.30;99.90;;;;;;5018682;28;20055;-70
2022/03/08 05:55:16;;;;;;;2.28;0.50;;;20.20;99.90;;;;;;5020569;28;20119;-72
2022/03/08 05:57:43;;;;;;;1.35;0.98;;;20.10;99.90;;;;;;5019516;28;20038;-72
2022/03/08 06:00:11;;;;;;;1.33;0.88;;;20.10;99.90;;;;;;5020280;28;20040;-73
2022/03/08 06:02:38;;;;;;;0.85;0.47;;;20.10;99.90;;;;;;5019181;28;20021;-72
2022/03/08 06:05:05;;;;;;;1.85;0.60;;;20.00;99.90;;;;;;5019449;28;20026;-72
2022/03/08 06:07:32;;;;;;;1.75;0.73;;;20.00;99.90;;;;;;5017301;28;20128;-72
2022/03/08 06:09:59;;;;;;;4.47;0.65;;;19.90;99.90;;;;;;5018386;28;20044;-71
2022/03/08 06:12:26;;;;;;;2.90;0.88;;;19.90;99.90;;;;;;5018508;28;20035;-72
2022/03/08 06:14:53;;;;;;;0.95;0.60;;;19.80;99.90;;;;;;5019564;28;20154;-70
2022/03/08 06:17:20;;;;;;;2.53;0.85;;;19.80;99.90;;;;;;5018056;28;20508;-70
2022/03/08 06:19:47;;;;;;;1.42;0.40;;;19.80;99.90;;;;;;5019371;28;20090;-69
2022/03/08 06:22:14;;;;;;;1.90;0.60;;;19.80;99.90;;;;;;5018729;28;20034;-70
2022/03/08 06:24:41;;;;;;;1.95;0.47;;;19.80;99.90;;;;;;5024422;28;20029;-69
2022/03/08 06:27:09;;;;;;;3.67;0.52;;;19.80;99.90;;;;;;5023691;28;20559;-70
2022/03/08 06:29:36;;;;;;;2.67;0.60;;;19.80;99.90;;;;;;5022454;28;20476;-69
2022/03/08 06:32:03;;;;;;;1.13;0.52;;;19.80;99.90;;;;;;5023626;28;20128;-69
2022/03/08 06:34:30;;;;;;;1.27;0.43;;;19.80;99.90;;;;;;5022284;28;20112;-69
2022/03/08 06:36:57;;;;;;;0.70;0.30;;;19.80;99.90;;;;;;5022713;28;20041;-68
2022/03/08 06:39:24;;;;;;;1.05;0.65;;;19.70;99.90;;;;;;5022346;28;20026;-68
2022/03/08 06:41:51;;;;;;;2.78;0.85;;;19.70;99.90;;;;;;5023609;28;20042;-69
2022/03/08 06:44:18;;;;;;;2.75;1.63;;;19.70;99.90;;;;;;5022711;28;20069;-70
2022/03/08 06:46:46;;;;;;;2.75;0.93;;;19.60;99.90;;;;;;5023892;28;20041;-70
2022/03/08 06:49:14;;;;;;;1.10;0.55;;;19.60;99.90;;;;;;5022092;28;20053;-69
2022/03/08 06:51:41;;;;;;;0.77;0.57;;;19.60;99.90;;;;;;5024038;28;20041;-69
2022/03/08 06:54:08;;;;;;;2.85;1.05;;;19.70;99.90;;;;;;5023326;28;20029;-69
2022/03/08 06:56:35;;;;;;;2.95;1.45;;;19.70;99.90;;;;;;5024471;28;20022;-67
2022/03/08 06:59:04;;;;;;;1.95;0.77;;;19.80;99.90;;;;;;5023342;28;20071;-69
2022/03/08 07:01:31;;;;;;;1.90;0.60;;;19.80;99.90;;;;;;5023271;28;20021;-72
2022/03/08 07:03:58;;;;;;;1.33;0.20;;;19.80;99.90;;;;;;5019583;28;20037;-66
2022/03/08 07:06:25;;;;;;;2.05;0.30;;;19.90;99.90;;;;;;5036422;28;20033;-65
2022/03/08 07:08:53;;;;;;;0.98;0.40;;;19.90;99.90;;;;;;5019340;28;20626;-68
2022/03/08 07:11:20;;;;;;;0.57;0.30;;;19.90;99.90;;;;;;5020645;28;20085;-69
2022/03/08 07:13:48;;;;;;;3.35;0.40;;;19.90;99.90;;;;;;5020938;28;20040;-68
2022/03/08 07:16:15;;;;;;;0.43;0.25;;;20.00;99.90;;;;;;5019619;28;20586;-67
2022/03/08 07:18:41;;;;;;;1.80;0.30;;;20.00;99.90;;;;;;5018980;28;20032;-68
2022/03/08 07:21:08;;;;;;;0.20;0.10;;;19.90;99.90;;;;;;5020936;28;20017;-68
2022/03/08 07:23:35;;;;;;;0.65;0.20;;;19.90;99.90;;;;;;5019306;28;20029;-67
2022/03/08 07:26:03;;;;;;;1.23;0.30;;;19.90;99.90;;;;;;5020351;28;20589;-74
2022/03/08 07:28:30;;;;;;;2.35;0.30;;;20.00;99.90;;;;;;5019976;28;20031;-73
2022/03/08 07:30:57;;;;;;;0.57;0.25;;;19.90;99.90;;;;;;5020368;28;20036;-68
2022/03/08 07:33:24;;;;;;;1.67;0.10;;;19.90;99.90;;;;;;5018693;28;20036;-75
2022/03/08 07:35:50;;;;;;;1.90;0.82;;;19.90;99.90;;;;;;5019772;28;20215;-67
2022/03/08 07:38:17;;;;;;;1.25;0.50;;;19.90;99.90;;;;;;5020592;28;20126;-73
2022/03/08 07:40:44;;;;;;;0.45;0.35;;;20.00;99.90;;;;;;5021323;28;20026;-68
2022/03/08 07:43:12;;;;;;;0.70;0.45;;;19.90;99.90;;;;;;5018334;28;20045;-67
2022/03/08 07:45:39;;;;;;;1.23;0.13;;;20.00;99.90;;;;;;5019750;28;20585;-67
2022/03/08 07:48:07;;;;;;;0.20;0.20;;;19.90;99.90;;;;;;5014247;28;20028;-66
2022/03/08 07:50:37;;;;;;;0.10;0.10;;;19.90;99.90;;;;;;5016225;28;20034;-68
2022/03/08 07:53:04;;;;;;;1.85;0.28;;;19.90;99.90;;;;;;5015329;28;20025;-67
2022/03/08 07:55:32;;;;;;;1.17;0.13;;;19.80;99.90;;;;;;5016523;28;20036;-69
2022/03/08 07:58:01;;;;;;;6.00;3.03;;;19.80;99.90;;;;;;5016134;28;20082;-69
2022/03/08 08:00:29;;;;;;;0.95;0.22;;;19.70;99.90;;;;;;5013089;28;20416;-77
2022/03/08 08:02:56;;;;;;;0.50;0.28;;;19.70;99.90;;;;;;5014268;28;20037;-76
2022/03/08 08:05:23;;;;;;;2.05;0.40;;;19.60;99.90;;;;;;5017223;28;20029;-70
2022/03/08 08:07:50;;;;;;;0.30;0.22;;;19.60;99.90;;;;;;5016476;28;20515;-72
2022/03/08 08:10:17;;;;;;;4.72;0.80;;;19.80;99.90;;;;;;5015608;28;20030;-73
2022/03/08 08:12:45;;;;;;;0.73;0.32;;;19.80;99.90;;;;;;5018478;28;20052;-72
2022/03/08 08:15:12;;;;;;;0.20;0.20;;;19.70;99.90;;;;;;5021036;28;20025;-72
2022/03/08 08:17:42;;;;;;;1.63;0.28;;;19.80;99.90;;;;;;5021792;28;20035;-72
2022/03/08 08:20:10;;;;;;;0.30;0.28;;;19.80;99.90;;;;;;5018046;28;20049;-73
2022/03/08 08:22:37;;;;;;;0.73;0.20;;;19.80;99.90;;;;;;5018539;28;20053;-67
2022/03/08 08:25:06;;;;;;;0.35;0.13;;;19.70;99.90;;;;;;5016390;28;20621;-69
2022/03/08 08:27:33;;;;;;;1.20;0.30;;;19.70;99.90;;;;;;5019828;28;20061;-68
2022/03/08 08:30:00;;;;;;;0.25;0.20;;;19.80;99.90;;;;;;5018159;28;20056;-74
2022/03/08 08:32:27;;;;;;;0.20;0.20;;;19.80;99.90;;;;;;5018427;28;20171;-69
2022/03/08 08:34:54;;;;;;;0.63;0.10;;;19.80;99.90;;;;;;5017442;28;20025;-70
2022/03/08 08:37:21;;;;;;;0.30;0.20;;;19.80;99.90;;;;;;5019980;28;20049;-71
2022/03/08 08:39:48;;;;;;;2.33;0.30;;;19.80;99.90;;;;;;5020515;28;20026;-70
2022/03/08 08:42:15;;;;;;;0.73;0.50;;;19.80;99.90;;;;;;5019856;28;20110;-67
2022/03/08 08:44:42;;;;;;;0.85;0.57;;;19.80;99.90;;;;;;5019554;28;20388;-70
2022/03/08 08:47:09;;;;;;;1.58;0.30;;;19.90;99.90;;;;;;5021271;28;20021;-71
2022/03/08 08:49:36;;;;;;;1.42;0.80;;;19.90;99.90;;;;;;5021932;28;20400;-72
2022/03/08 08:52:04;;;;;;;2.15;0.32;;;19.80;99.90;;;;;;5022241;28;20547;-69
2022/03/08 08:54:31;;;;;;;1.05;0.40;;;19.80;99.90;;;;;;5023533;28;20561;-71
2022/03/08 08:56:58;;;;;;;2.65;0.98;;;19.80;99.90;;;;;;5018516;28;20044;-71
2022/03/08 08:59:25;;;;;;;2.38;0.20;;;19.90;99.90;;;;;;5021850;28;20392;-71
2022/03/08 09:01:52;;;;;;;0.50;0.25;;;19.80;99.90;;;;;;5020298;28;20030;-71
2022/03/08 09:04:19;;;;;;;1.27;0.40;;;19.90;99.90;;;;;;5021351;28;20405;-74
2022/03/08 09:06:46;;;;;;;0.17;0.10;;;20.00;99.90;;;;;;5018249;28;20861;-72
2022/03/08 09:09:13;;;;;;;1.00;0.52;;;20.00;99.90;;;;;;5019854;28;20571;-66
2022/03/08 09:11:40;;;;;;;0.95;0.25;;;19.90;99.90;;;;;;5019710;28;20095;-68
2022/03/08 09:14:08;;;;;;;0.10;0.10;;;19.90;99.90;;;;;;5019603;28;20108;-67
2022/03/08 09:16:36;;;;;;;0.25;0.13;;;19.90;99.90;;;;;;5021129;28;20108;-72
2022/03/08 09:19:03;;;;;;;0.17;0.17;;;19.90;99.90;;;;;;5021668;28;20026;-72
2022/03/08 09:21:30;;;;;;;4.20;0.85;;;19.80;99.90;;;;;;5018345;28;20029;-72
2022/03/08 09:23:57;;;;;;;0.65;0.10;;;19.80;99.90;;;;;;5022815;28;20121;-71
2022/03/08 09:26:24;;;;;;;0.40;0.10;;;19.70;99.90;;;;;;5023494;28;20029;-68
2022/03/08 09:28:51;;;;;;;0.10;0.10;;;19.70;99.90;;;;;;5020687;28;20029;-75
2022/03/08 09:31:18;;;;;;;0.47;0.10;;;19.60;99.90;;;;;;5021339;28;20520;-70
2022/03/08 09:33:45;;;;;;;0.70;0.20;;;19.60;99.90;;;;;;5021900;28;20045;-70
2022/03/08 09:36:12;;;;;;;1.88;0.30;;;19.50;99.90;;;;;;5021846;28;20056;-72
2022/03/08 09:38:40;;;;;;;0.50;0.25;;;19.50;99.90;;;;;;5020321;28;20025;-67
2022/03/08 09:41:07;;;;;;;0.22;0.15;;;19.40;99.90;;;;;;5020448;28;20029;-69
2022/03/08 09:43:37;;;;;;;0.77;0.30;;;19.40;99.90;;;;;;5020998;28;20052;-70
2022/03/08 09:46:05;;;;;;;0.80;0.28;;;19.40;99.90;;;;;;5020384;28;20089;-69
2022/03/08 09:48:32;;;;;;;0.40;0.40;;;19.40;99.90;;;;;;5019351;28;20026;-71
2022/03/08 09:51:01;;;;;;;0.45;0.15;;;19.40;99.90;;;;;;5017283;28;20036;-67
2022/03/08 09:53:32;;;;;;;0.17;0.10;;;19.40;99.90;;;;;;5020343;28;20021;-69
2022/03/08 09:56:01;;;;;;;1.35;0.95;;;19.40;99.90;;;;;;4667378;28;10000460;-69
2022/03/08 09:58:28;;;;;;;0.40;0.30;;;19.40;99.90;;;;;;5020820;28;20031;-69
2022/03/08 10:00:58;;;;;;;2.65;0.47;;;19.40;99.90;;;;;;5027453;28;20125;-69
2022/03/08 10:03:35;;;;;;;0.20;0.20;;;19.40;99.90;;;;;;5015453;28;20021;-68
2022/03/08 10:06:03;;;;;;;0.15;0.13;;;19.30;99.90;;;;;;5014486;28;20184;-68
2022/03/08 10:08:31;;;;;;;0.73;0.40;;;19.30;99.90;;;;;;5014538;28;20104;-69
2022/03/08 10:11:04;;;;;;;0.55;0.55;;;19.20;99.90;;;;;;5020797;28;20045;-71
2022/03/08 10:13:38;;;;;;;1.30;0.47;;;19.10;99.90;;;;;;5017475;28;20043;-69
2022/03/08 10:16:30;;;;;;;2.05;0.30;;;19.00;99.90;;;;;;5015153;28;20022;-69
2022/03/08 10:19:02;;;;;;;2.80;0.88;;;18.90;99.90;;;;;;5015773;28;20587;-69
2022/03/08 10:21:42;;;;;;;1.00;0.55;;;18.80;99.90;;;;;;5015049;28;20021;-69
2022/03/08 10:24:31;;;;;;;1.13;0.68;;;18.70;99.90;;;;;;5015021;28;20506;-70
2022/03/08 10:27:00;;;;;;;1.95;0.10;;;18.70;99.90;;;;;;5014746;28;20031;-68
2022/03/08 10:29:31;;;;;;;0.88;0.40;;;18.70;99.90;;;;;;5014549;28;20025;-69
2022/03/08 10:32:04;;;;;;;0.20;0.20;;;18.60;99.90;;;;;;5017708;28;20053;-68
2022/03/08 10:34:32;;;;;;;0.65;0.22;;;18.60;99.90;;;;;;5013968;28;20057;-67
2022/03/08 10:37:17;;;;;;;0.08;0.08;;;18.60;99.90;;;;;;4678786;23;10001380;-68
2022/03/08 10:39:55;;;;;;;0.10;0.10;;;18.60;99.90;;;;;;5011969;28;20091;-67
2022/03/08 10:42:27;;;;;;;0.32;0.10;;;18.60;99.90;;;;;;5018495;28;20029;-67
2022/03/08 10:45:12;;;;;;;0.88;0.28;;;18.60;99.90;;;;;;5014785;28;20451;-67
2022/03/08 10:47:40;;;;;;;0.45;0.30;;;18.70;99.90;;;;;;5017779;28;20033;-69
2022/03/08 10:50:08;;;;;;;0.32;0.20;;;18.70;99.90;;;;;;5018872;28;20087;-68
2022/03/08 10:52:38;;;;;;;0.30;0.20;;;18.70;99.90;;;;;;5013630;28;20447;-67
2022/03/08 10:55:15;;;;;;;1.30;0.73;;;18.70;99.90;;;;;;5013630;28;20603;-67
2022/03/08 10:57:50;;;;;;;0.98;0.20;;;18.60;99.90;;;;;;5021367;28;20033;-69
2022/03/08 11:00:20;;;;;;;1.17;0.20;;;18.60;99.90;;;;;;5018391;28;20459;-68
2022/03/08 11:02:50;;;;;;;3.55;1.73;;;18.60;99.90;;;;;;5013848;28;20392;-70
2022/03/08 11:05:18;;;;;;;0.10;0.10;;;18.60;99.90;;;;;;5013812;28;20319;-68
2022/03/08 11:07:46;;;;;;;0.55;0.13;;;18.70;99.90;;;;;;5011077;28;20037;-66
2022/03/08 11:10:14;;;;;;;1.08;0.10;;;18.70;99.90;;;;;;5018380;28;20323;-67
2022/03/08 11:12:42;;;;;;;1.67;0.10;;;18.70;99.90;;;;;;5018367;28;20030;-67
2022/03/08 11:15:13;;;;;;;1.35;0.20;;;18.60;99.90;;;;;;5018769;28;20080;-69
2022/03/08 11:17:44;;;;;;;0.73;0.10;;;18.60;99.90;;;;;;5010663;28;20022;-70
2022/03/08 11:20:12;;;;;;;0.10;0.10;;;18.70;99.90;;;;;;5016583;28;20049;-69
2022/03/08 11:22:41;;;;;;;3.55;0.30;;;18.70;99.90;;;;;;5019731;28;20022;-68
2022/03/08 11:25:10;;;;;;;0.10;0.10;;;18.60;99.90;;;;;;5015515;28;20104;-69
2022/03/08 11:27:40;;;;;;;0.73;0.10;;;18.60;99.90;;;;;;5016216;28;20132;-68
2022/03/08 11:30:10;;;;;;;0.40;0.10;;;18.70;99.90;;;;;;5018830;28;20518;-69
2022/03/08 11:32:44;;;;;;;0.03;0.03;;;18.70;99.90;;;;;;5020586;28;20171;-69
2022/03/08 11:35:19;;;;;;;0.70;0.20;;;18.70;99.90;;;;;;5015416;28;20029;-70
2022/03/08 11:37:49;;;;;;;0.80;0.30;;;18.70;99.90;;;;;;5014654;28;20084;-71
2022/03/08 11:40:19;;;;;;;0.73;0.30;;;18.60;99.90;;;;;;5019864;28;20032;-70
2022/03/08 11:42:50;;;;;;;1.45;0.50;;;18.60;99.90;;;;;;5020139;28;20022;-69
2022/03/08 11:45:28;;;;;;;1.77;0.80;;;18.60;99.90;;;;;;5018298;28;20060;-70
2022/03/08 11:48:02;;;;;;;4.65;2.63;;;18.60;99.90;;;;;;5016653;28;20504;-72
2022/03/08 11:50:32;;;;;;;1.73;1.45;;;18.60;99.90;;;;;;5020861;28;20136;-69
2022/03/08 11:53:24;;;;;;;0.50;0.40;;;18.60;99.90;;;;;;5016182;28;20032;-70
2022/03/08 11:55:55;;;;;;;2.85;1.08;;;18.50;99.90;;;;;;5022147;28;20025;-69
2022/03/08 11:58:40;;;;;;;0.22;0.22;;;18.60;99.90;;;;;;5018564;28;20095;-70
2022/03/08 12:01:08;;;;;;;1.10;0.40;;;18.50;99.90;;;;;;5015808;28;20400;-72
2022/03/08 12:03:34;;;;;;;0.00;0.00;;;18.50;99.90;;;;;;5019966;28;20355;-69
2022/03/08 12:06:13;;;;;;;1.90;0.20;;;18.50;99.90;;;;;;5017752;28;20857;-71
2022/03/08 12:08:46;;;;;;;0.50;0.20;;;18.50;99.90;;;;;;5014465;28;20033;-71
2022/03/08 12:11:26;;;;;;;2.53;0.30;;;18.50;99.90;;;;;;5018929;28;20037;-69
2022/03/08 12:14:20;;;;;;;0.10;0.10;;;18.50;99.90;;;;;;5015815;28;20872;-70
2022/03/08 12:16:51;;;;;;;1.63;0.10;;;18.50;99.90;;;;;;5015946;28;20590;-69
2022/03/08 12:19:31;;;;;;;0.70;0.20;;;18.50;99.90;;;;;;5019658;28;20437;-68
2022/03/08 12:21:58;;;;;;;0.35;0.20;;;18.50;99.90;;;;;;5016398;28;20032;-68
2022/03/08 12:24:26;;;;;;;0.25;0.13;;;18.60;99.90;;;;;;5017328;28;20096;-67
2022/03/08 12:27:00;;;;;;;1.33;0.10;;;18.50;99.90;;;;;;5014455;28;20050;-69
2022/03/08 12:29:49;;;;;;;0.30;0.20;;;18.50;99.90;;;;;;5019371;28;20029;-68
2022/03/08 12:32:41;;;;;;;1.67;0.70;;;18.60;99.90;;;;;;5017559;28;20033;-68
2022/03/08 12:35:26;;;;;;;0.93;0.20;;;18.60;99.90;;;;;;5009006;28;20048;-69
2022/03/08 12:38:01;;;;;;;0.20;0.20;;;18.60;99.90;;;;;;5019214;28;20106;-68
2022/03/08 12:40:30;;;;;;;0.32;0.10;;;18.60;99.90;;;;;;5016064;28;20021;-68
2022/03/08 12:43:03;;;;;;;0.10;0.00;;;18.50;99.90;;;;;;5014623;28;20030;-68
2022/03/08 12:45:35;;;;;;;0.45;0.15;;;18.60;99.90;;;;;;5015673;28;20030;-69
2022/03/08 12:48:07;;;;;;;0.82;0.40;;;18.60;99.90;;;;;;5016990;28;20026;-69
2022/03/08 12:50:47;;;;;;;1.50;0.98;;;18.60;99.90;;;;;;5015730;28;20091;-69
2022/03/08 12:53:25;;;;;;;1.05;0.85;;;18.60;99.90;;;;;;5016662;28;20488;-68